sensor_id;sensor_type;location;lat;lon;timestamp;P1;durP1;ratioP1;P2;durP2;ratioP2
31424;SDS011;18054;51.572;7.372;2022-09-09T00:01:28;3.47;;;0.70;;
31424;SDS011;18054;51.572;7.372;2022-09-09T00:04:03;4.15;;;0.77;;
31424;SDS011;18054;51.572;7.372;2022-09-09T00:06:33;4.60;;;0.93;;
31424;SDS011;18054;51.572;7.372;2022-09-09T00:09:04;4.50;;;0.85;;
31424;SDS011;18054;51.572;7.372;2022-09-09T00:11:36;7.95;;;1.25;;
31424;SDS011;18054;51.572;7.372;2022-09-09T00:14:08;4.97;;;1.88;;
31424;SDS011;18054;51.572;7.372;2022-09-09T00:16:40;8.93;;;1.45;;
31424;SDS011;18054;51.572;7.372;2022-09-09T00:19:12;5.72;;;1.60;;
31424;SDS011;18054;51.572;7.372;2022-09-09T00:21:47;4.93;;;1.10;;
31424;SDS011;18054;51.572;7.372;2022-09-09T00:24:22;4.78;;;1.33;;
31424;SDS011;18054;51.572;7.372;2022-09-09T00:26:52;5.75;;;1.48;;
31424;SDS011;18054;51.572;7.372;2022-09-09T00:29:22;6.75;;;1.45;;
31424;SDS011;18054;51.572;7.372;2022-09-09T00:31:53;7.60;;;2.05;;
31424;SDS011;18054;51.572;7.372;2022-09-09T00:34:22;7.00;;;1.52;;
31424;SDS011;18054;51.572;7.372;2022-09-09T00:36:50;5.80;;;1.73;;
31424;SDS011;18054;51.572;7.372;2022-09-09T00:39:23;7.32;;;1.00;;
31424;SDS011;18054;51.572;7.372;2022-09-09T00:41:55;6.47;;;1.15;;
31424;SDS011;18054;51.572;7.372;2022-09-09T00:44:25;8.50;;;1.60;;
31424;SDS011;18054;51.572;7.372;2022-09-09T00:47:09;5.25;;;1.08;;
31424;SDS011;18054;51.572;7.372;2022-09-09T00:49:42;6.32;;;1.10;;
31424;SDS011;18054;51.572;7.372;2022-09-09T00:52:18;8.50;;;1.17;;
31424;SDS011;18054;51.572;7.372;2022-09-09T00:54:52;4.22;;;1.13;;
31424;SDS011;18054;51.572;7.372;2022-09-09T00:57:25;4.40;;;1.00;;
31424;SDS011;18054;51.572;7.372;2022-09-09T00:59:58;4.28;;;0.88;;
31424;SDS011;18054;51.572;7.372;2022-09-09T01:02:32;3.10;;;0.98;;
31424;SDS011;18054;51.572;7.372;2022-09-09T01:05:05;5.10;;;1.08;;
31424;SDS011;18054;51.572;7.372;2022-09-09T01:07:34;5.65;;;1.08;;
31424;SDS011;18054;51.572;7.372;2022-09-09T01:10:05;4.72;;;0.98;;
31424;SDS011;18054;51.572;7.372;2022-09-09T01:12:37;5.28;;;1.20;;
31424;SDS011;18054;51.572;7.372;2022-09-09T01:15:09;3.72;;;1.10;;
31424;SDS011;18054;51.572;7.372;2022-09-09T01:17:49;6.45;;;1.23;;
31424;SDS011;18054;51.572;7.372;2022-09-09T01:20:18;4.78;;;0.90;;
31424;SDS011;18054;51.572;7.372;2022-09-09T01:22:56;2.75;;;1.20;;
31424;SDS011;18054;51.572;7.372;2022-09-09T01:25:30;4.00;;;1.25;;
31424;SDS011;18054;51.572;7.372;2022-09-09T01:28:08;5.47;;;1.60;;
31424;SDS011;18054;51.572;7.372;2022-09-09T01:30:38;4.53;;;1.27;;
31424;SDS011;18054;51.572;7.372;2022-09-09T01:33:09;5.15;;;1.50;;
31424;SDS011;18054;51.572;7.372;2022-09-09T01:35:41;5.03;;;1.40;;
31424;SDS011;18054;51.572;7.372;2022-09-09T01:38:11;5.15;;;1.15;;
31424;SDS011;18054;51.572;7.372;2022-09-09T01:43:07;5.68;;;1.65;;
31424;SDS011;18054;51.572;7.372;2022-09-09T01:45:36;5.88;;;1.75;;
31424;SDS011;18054;51.572;7.372;2022-09-09T01:48:04;9.88;;;2.17;;
31424;SDS011;18054;51.572;7.372;2022-09-09T01:50:44;8.02;;;2.90;;
31424;SDS011;18054;51.572;7.372;2022-09-09T01:53:12;9.43;;;2.35;;
31424;SDS011;18054;51.572;7.372;2022-09-09T01:55:45;6.53;;;2.10;;
31424;SDS011;18054;51.572;7.372;2022-09-09T01:58:23;7.40;;;1.83;;
31424;SDS011;18054;51.572;7.372;2022-09-09T02:00:56;8.00;;;2.20;;
31424;SDS011;18054;51.572;7.372;2022-09-09T02:03:27;7.10;;;2.33;;
31424;SDS011;18054;51.572;7.372;2022-09-09T02:06:05;6.50;;;2.47;;
31424;SDS011;18054;51.572;7.372;2022-09-09T02:08:40;7.95;;;2.50;;
31424;SDS011;18054;51.572;7.372;2022-09-09T02:11:11;10.82;;;2.38;;
31424;SDS011;18054;51.572;7.372;2022-09-09T02:13:46;9.70;;;2.58;;
31424;SDS011;18054;51.572;7.372;2022-09-09T02:16:17;10.82;;;2.50;;
31424;SDS011;18054;51.572;7.372;2022-09-09T02:18:48;8.15;;;2.50;;
31424;SDS011;18054;51.572;7.372;2022-09-09T02:21:21;9.27;;;2.85;;
31424;SDS011;18054;51.572;7.372;2022-09-09T02:23:49;5.22;;;2.10;;
31424;SDS011;18054;51.572;7.372;2022-09-09T02:26:18;9.10;;;2.67;;
31424;SDS011;18054;51.572;7.372;2022-09-09T02:28:54;7.28;;;2.13;;
31424;SDS011;18054;51.572;7.372;2022-09-09T02:31:22;10.00;;;2.80;;
31424;SDS011;18054;51.572;7.372;2022-09-09T02:33:59;9.73;;;2.65;;
31424;SDS011;18054;51.572;7.372;2022-09-09T02:36:28;7.25;;;2.85;;
31424;SDS011;18054;51.572;7.372;2022-09-09T02:38:56;10.90;;;3.47;;
31424;SDS011;18054;51.572;7.372;2022-09-09T02:41:28;15.70;;;2.83;;
31424;SDS011;18054;51.572;7.372;2022-09-09T02:44:00;7.57;;;2.70;;
31424;SDS011;18054;51.572;7.372;2022-09-09T02:46:32;11.18;;;2.78;;
31424;SDS011;18054;51.572;7.372;2022-09-09T02:49:03;7.60;;;2.60;;
31424;SDS011;18054;51.572;7.372;2022-09-09T02:51:42;18.52;;;3.22;;
31424;SDS011;18054;51.572;7.372;2022-09-09T02:54:15;7.70;;;2.67;;
31424;SDS011;18054;51.572;7.372;2022-09-09T02:56:46;9.90;;;2.47;;
31424;SDS011;18054;51.572;7.372;2022-09-09T02:59:18;13.18;;;3.28;;
31424;SDS011;18054;51.572;7.372;2022-09-09T03:01:46;10.90;;;3.20;;
31424;SDS011;18054;51.572;7.372;2022-09-09T03:04:13;6.22;;;2.63;;
31424;SDS011;18054;51.572;7.372;2022-09-09T03:06:41;8.32;;;2.95;;
31424;SDS011;18054;51.572;7.372;2022-09-09T03:09:16;12.60;;;3.33;;
31424;SDS011;18054;51.572;7.372;2022-09-09T03:11:46;9.57;;;2.72;;
31424;SDS011;18054;51.572;7.372;2022-09-09T03:14:15;7.68;;;3.00;;
31424;SDS011;18054;51.572;7.372;2022-09-09T03:16:44;11.27;;;2.72;;
31424;SDS011;18054;51.572;7.372;2022-09-09T03:19:12;11.60;;;2.70;;
31424;SDS011;18054;51.572;7.372;2022-09-09T03:24:07;8.88;;;2.55;;
31424;SDS011;18054;51.572;7.372;2022-09-09T03:26:35;11.70;;;3.97;;
31424;SDS011;18054;51.572;7.372;2022-09-09T03:29:06;8.82;;;2.42;;
31424;SDS011;18054;51.572;7.372;2022-09-09T03:31:34;13.88;;;4.65;;
31424;SDS011;18054;51.572;7.372;2022-09-09T03:34:03;11.73;;;2.75;;
31424;SDS011;18054;51.572;7.372;2022-09-09T03:36:33;11.65;;;2.45;;
31424;SDS011;18054;51.572;7.372;2022-09-09T03:39:00;12.05;;;2.67;;
31424;SDS011;18054;51.572;7.372;2022-09-09T03:41:30;7.78;;;2.45;;
31424;SDS011;18054;51.572;7.372;2022-09-09T03:43:59;7.53;;;3.10;;
31424;SDS011;18054;51.572;7.372;2022-09-09T03:46:31;13.32;;;5.38;;
31424;SDS011;18054;51.572;7.372;2022-09-09T03:49:00;16.02;;;3.80;;
31424;SDS011;18054;51.572;7.372;2022-09-09T03:51:31;7.40;;;2.28;;
31424;SDS011;18054;51.572;7.372;2022-09-09T03:54:04;17.98;;;2.83;;
31424;SDS011;18054;51.572;7.372;2022-09-09T03:56:34;12.45;;;2.80;;
31424;SDS011;18054;51.572;7.372;2022-09-09T03:59:02;9.52;;;2.38;;
31424;SDS011;18054;51.572;7.372;2022-09-09T04:01:30;13.68;;;2.40;;
31424;SDS011;18054;51.572;7.372;2022-09-09T04:03:57;7.03;;;2.30;;
31424;SDS011;18054;51.572;7.372;2022-09-09T04:08:54;10.63;;;2.95;;
31424;SDS011;18054;51.572;7.372;2022-09-09T04:11:24;8.23;;;2.30;;
31424;SDS011;18054;51.572;7.372;2022-09-09T04:13:54;7.32;;;2.65;;
31424;SDS011;18054;51.572;7.372;2022-09-09T04:16:22;6.72;;;2.30;;
31424;SDS011;18054;51.572;7.372;2022-09-09T04:21:19;7.80;;;2.53;;
31424;SDS011;18054;51.572;7.372;2022-09-09T04:23:47;15.07;;;2.38;;
31424;SDS011;18054;51.572;7.372;2022-09-09T04:26:16;8.52;;;2.15;;
31424;SDS011;18054;51.572;7.372;2022-09-09T04:28:44;11.82;;;2.80;;
31424;SDS011;18054;51.572;7.372;2022-09-09T04:31:17;8.75;;;2.38;;
31424;SDS011;18054;51.572;7.372;2022-09-09T04:33:47;10.50;;;2.50;;
31424;SDS011;18054;51.572;7.372;2022-09-09T04:36:15;8.48;;;2.83;;
31424;SDS011;18054;51.572;7.372;2022-09-09T04:38:44;11.18;;;4.38;;
31424;SDS011;18054;51.572;7.372;2022-09-09T04:41:13;14.77;;;2.50;;
31424;SDS011;18054;51.572;7.372;2022-09-09T04:43:44;8.88;;;2.25;;
31424;SDS011;18054;51.572;7.372;2022-09-09T04:46:13;8.25;;;2.38;;
31424;SDS011;18054;51.572;7.372;2022-09-09T04:48:43;11.10;;;2.30;;
31424;SDS011;18054;51.572;7.372;2022-09-09T04:51:12;8.30;;;2.47;;
31424;SDS011;18054;51.572;7.372;2022-09-09T04:53:41;5.95;;;1.85;;
31424;SDS011;18054;51.572;7.372;2022-09-09T04:56:11;8.57;;;2.13;;
31424;SDS011;18054;51.572;7.372;2022-09-09T04:58:52;9.88;;;2.30;;
31424;SDS011;18054;51.572;7.372;2022-09-09T05:01:23;13.88;;;2.92;;
31424;SDS011;18054;51.572;7.372;2022-09-09T05:03:56;16.88;;;2.70;;
31424;SDS011;18054;51.572;7.372;2022-09-09T05:06:24;9.25;;;2.33;;
31424;SDS011;18054;51.572;7.372;2022-09-09T05:08:55;9.23;;;2.40;;
31424;SDS011;18054;51.572;7.372;2022-09-09T05:11:25;9.93;;;2.50;;
31424;SDS011;18054;51.572;7.372;2022-09-09T05:14:02;10.63;;;2.17;;
31424;SDS011;18054;51.572;7.372;2022-09-09T05:16:31;13.68;;;2.90;;
31424;SDS011;18054;51.572;7.372;2022-09-09T05:18:58;7.85;;;2.30;;
31424;SDS011;18054;51.572;7.372;2022-09-09T05:21:35;9.32;;;3.15;;
31424;SDS011;18054;51.572;7.372;2022-09-09T05:24:03;8.40;;;2.60;;
31424;SDS011;18054;51.572;7.372;2022-09-09T05:26:30;5.50;;;1.85;;
31424;SDS011;18054;51.572;7.372;2022-09-09T05:28:59;11.82;;;2.53;;
31424;SDS011;18054;51.572;7.372;2022-09-09T05:31:29;10.55;;;2.60;;
31424;SDS011;18054;51.572;7.372;2022-09-09T05:34:00;7.95;;;1.90;;
31424;SDS011;18054;51.572;7.372;2022-09-09T05:36:28;14.80;;;2.38;;
31424;SDS011;18054;51.572;7.372;2022-09-09T05:38:56;10.75;;;2.45;;
31424;SDS011;18054;51.572;7.372;2022-09-09T05:41:26;7.28;;;2.28;;
31424;SDS011;18054;51.572;7.372;2022-09-09T05:43:57;9.52;;;2.15;;
31424;SDS011;18054;51.572;7.372;2022-09-09T05:46:28;10.13;;;2.15;;
31424;SDS011;18054;51.572;7.372;2022-09-09T05:48:56;12.73;;;3.33;;
31424;SDS011;18054;51.572;7.372;2022-09-09T05:51:28;15.07;;;2.83;;
31424;SDS011;18054;51.572;7.372;2022-09-09T05:53:58;13.85;;;3.10;;
31424;SDS011;18054;51.572;7.372;2022-09-09T05:56:28;13.75;;;2.80;;
31424;SDS011;18054;51.572;7.372;2022-09-09T05:58:58;12.18;;;2.88;;
31424;SDS011;18054;51.572;7.372;2022-09-09T06:01:27;11.00;;;2.28;;
31424;SDS011;18054;51.572;7.372;2022-09-09T06:03:58;19.02;;;3.03;;
31424;SDS011;18054;51.572;7.372;2022-09-09T06:06:26;15.50;;;2.40;;
31424;SDS011;18054;51.572;7.372;2022-09-09T06:08:56;12.18;;;2.42;;
31424;SDS011;18054;51.572;7.372;2022-09-09T06:11:30;12.50;;;2.00;;
31424;SDS011;18054;51.572;7.372;2022-09-09T06:13:59;10.00;;;2.53;;
31424;SDS011;18054;51.572;7.372;2022-09-09T06:16:28;9.35;;;2.30;;
31424;SDS011;18054;51.572;7.372;2022-09-09T06:19:00;11.05;;;2.05;;
31424;SDS011;18054;51.572;7.372;2022-09-09T06:21:30;8.93;;;2.17;;
31424;SDS011;18054;51.572;7.372;2022-09-09T06:24:00;8.68;;;2.00;;
31424;SDS011;18054;51.572;7.372;2022-09-09T06:26:28;7.68;;;1.65;;
31424;SDS011;18054;51.572;7.372;2022-09-09T06:28:57;13.63;;;2.45;;
31424;SDS011;18054;51.572;7.372;2022-09-09T06:31:28;9.60;;;1.70;;
31424;SDS011;18054;51.572;7.372;2022-09-09T06:34:09;9.18;;;2.10;;
31424;SDS011;18054;51.572;7.372;2022-09-09T06:36:40;10.52;;;1.98;;
31424;SDS011;18054;51.572;7.372;2022-09-09T06:39:08;9.15;;;1.98;;
31424;SDS011;18054;51.572;7.372;2022-09-09T06:41:40;7.32;;;2.00;;
31424;SDS011;18054;51.572;7.372;2022-09-09T06:44:20;14.63;;;4.00;;
31424;SDS011;18054;51.572;7.372;2022-09-09T06:46:48;11.65;;;2.00;;
31424;SDS011;18054;51.572;7.372;2022-09-09T06:49:18;12.30;;;2.03;;
31424;SDS011;18054;51.572;7.372;2022-09-09T06:51:45;13.38;;;3.42;;
31424;SDS011;18054;51.572;7.372;2022-09-09T06:54:13;13.07;;;1.90;;
31424;SDS011;18054;51.572;7.372;2022-09-09T06:56:43;12.52;;;2.08;;
31424;SDS011;18054;51.572;7.372;2022-09-09T06:59:19;8.77;;;1.90;;
31424;SDS011;18054;51.572;7.372;2022-09-09T07:01:48;8.13;;;1.77;;
31424;SDS011;18054;51.572;7.372;2022-09-09T07:04:22;9.00;;;1.92;;
31424;SDS011;18054;51.572;7.372;2022-09-09T07:06:51;8.93;;;1.80;;
31424;SDS011;18054;51.572;7.372;2022-09-09T07:09:23;10.70;;;1.75;;
31424;SDS011;18054;51.572;7.372;2022-09-09T07:11:52;7.65;;;1.63;;
31424;SDS011;18054;51.572;7.372;2022-09-09T07:14:22;9.77;;;1.95;;
31424;SDS011;18054;51.572;7.372;2022-09-09T07:16:56;8.43;;;1.40;;
31424;SDS011;18054;51.572;7.372;2022-09-09T07:19:27;6.03;;;1.48;;
31424;SDS011;18054;51.572;7.372;2022-09-09T07:21:55;13.25;;;1.55;;
31424;SDS011;18054;51.572;7.372;2022-09-09T07:24:24;11.38;;;2.13;;
31424;SDS011;18054;51.572;7.372;2022-09-09T07:26:51;8.00;;;1.65;;
31424;SDS011;18054;51.572;7.372;2022-09-09T07:29:19;11.48;;;2.13;;
31424;SDS011;18054;51.572;7.372;2022-09-09T07:31:49;8.90;;;1.80;;
31424;SDS011;18054;51.572;7.372;2022-09-09T07:34:22;13.20;;;1.88;;
31424;SDS011;18054;51.572;7.372;2022-09-09T07:36:51;7.95;;;1.85;;
31424;SDS011;18054;51.572;7.372;2022-09-09T07:39:19;6.53;;;1.50;;
31424;SDS011;18054;51.572;7.372;2022-09-09T07:41:50;8.43;;;1.88;;
31424;SDS011;18054;51.572;7.372;2022-09-09T07:44:22;8.27;;;2.30;;
31424;SDS011;18054;51.572;7.372;2022-09-09T07:46:57;7.47;;;1.98;;
31424;SDS011;18054;51.572;7.372;2022-09-09T07:49:32;9.95;;;1.98;;
31424;SDS011;18054;51.572;7.372;2022-09-09T07:52:03;4.97;;;1.40;;
31424;SDS011;18054;51.572;7.372;2022-09-09T07:54:39;10.88;;;1.98;;
31424;SDS011;18054;51.572;7.372;2022-09-09T07:57:07;5.90;;;1.80;;
31424;SDS011;18054;51.572;7.372;2022-09-09T07:59:36;9.77;;;1.70;;
31424;SDS011;18054;51.572;7.372;2022-09-09T08:02:04;8.77;;;1.70;;
31424;SDS011;18054;51.572;7.372;2022-09-09T08:04:34;8.93;;;1.55;;
31424;SDS011;18054;51.572;7.372;2022-09-09T08:07:03;3.70;;;1.13;;
31424;SDS011;18054;51.572;7.372;2022-09-09T08:09:37;10.35;;;1.67;;
31424;SDS011;18054;51.572;7.372;2022-09-09T08:12:11;8.43;;;1.58;;
31424;SDS011;18054;51.572;7.372;2022-09-09T08:14:39;6.47;;;1.50;;
31424;SDS011;18054;51.572;7.372;2022-09-09T08:17:06;13.70;;;4.15;;
31424;SDS011;18054;51.572;7.372;2022-09-09T08:22:07;11.18;;;1.85;;
31424;SDS011;18054;51.572;7.372;2022-09-09T08:24:37;9.32;;;1.15;;
31424;SDS011;18054;51.572;7.372;2022-09-09T08:27:06;10.27;;;2.20;;
31424;SDS011;18054;51.572;7.372;2022-09-09T08:29:33;7.80;;;1.38;;
31424;SDS011;18054;51.572;7.372;2022-09-09T08:32:01;10.10;;;1.23;;
31424;SDS011;18054;51.572;7.372;2022-09-09T08:34:29;13.38;;;1.45;;
31424;SDS011;18054;51.572;7.372;2022-09-09T08:37:01;5.70;;;1.30;;
31424;SDS011;18054;51.572;7.372;2022-09-09T08:39:35;9.15;;;1.50;;
31424;SDS011;18054;51.572;7.372;2022-09-09T08:42:22;10.30;;;1.95;;
31424;SDS011;18054;51.572;7.372;2022-09-09T08:45:00;12.43;;;1.90;;
31424;SDS011;18054;51.572;7.372;2022-09-09T08:47:33;9.60;;;1.83;;
31424;SDS011;18054;51.572;7.372;2022-09-09T08:50:05;10.70;;;1.77;;
31424;SDS011;18054;51.572;7.372;2022-09-09T08:52:36;7.40;;;1.20;;
31424;SDS011;18054;51.572;7.372;2022-09-09T08:55:12;8.75;;;1.65;;
31424;SDS011;18054;51.572;7.372;2022-09-09T08:57:43;12.95;;;1.90;;
31424;SDS011;18054;51.572;7.372;2022-09-09T09:00:12;7.70;;;1.65;;
31424;SDS011;18054;51.572;7.372;2022-09-09T09:05:10;11.75;;;2.10;;
31424;SDS011;18054;51.572;7.372;2022-09-09T09:07:47;12.18;;;1.42;;
31424;SDS011;18054;51.572;7.372;2022-09-09T09:10:24;5.45;;;1.85;;
31424;SDS011;18054;51.572;7.372;2022-09-09T09:13:15;9.90;;;1.80;;
31424;SDS011;18054;51.572;7.372;2022-09-09T09:15:46;7.63;;;1.60;;
31424;SDS011;18054;51.572;7.372;2022-09-09T09:18:14;13.45;;;1.95;;
31424;SDS011;18054;51.572;7.372;2022-09-09T09:20:46;11.98;;;2.17;;
31424;SDS011;18054;51.572;7.372;2022-09-09T09:23:16;9.88;;;2.85;;
31424;SDS011;18054;51.572;7.372;2022-09-09T09:25:48;8.70;;;1.45;;
31424;SDS011;18054;51.572;7.372;2022-09-09T09:28:18;12.38;;;2.47;;
31424;SDS011;18054;51.572;7.372;2022-09-09T09:30:52;10.55;;;1.80;;
31424;SDS011;18054;51.572;7.372;2022-09-09T09:33:22;11.35;;;2.85;;
31424;SDS011;18054;51.572;7.372;2022-09-09T09:35:51;7.50;;;1.65;;
31424;SDS011;18054;51.572;7.372;2022-09-09T09:38:21;6.65;;;1.85;;
31424;SDS011;18054;51.572;7.372;2022-09-09T09:41:11;6.70;;;1.88;;
31424;SDS011;18054;51.572;7.372;2022-09-09T09:43:40;9.38;;;2.30;;
31424;SDS011;18054;51.572;7.372;2022-09-09T09:46:18;11.10;;;2.00;;
31424;SDS011;18054;51.572;7.372;2022-09-09T09:48:55;13.13;;;2.00;;
31424;SDS011;18054;51.572;7.372;2022-09-09T09:51:23;5.45;;;1.60;;
31424;SDS011;18054;51.572;7.372;2022-09-09T09:53:51;13.00;;;2.00;;
31424;SDS011;18054;51.572;7.372;2022-09-09T09:56:27;6.75;;;1.90;;
31424;SDS011;18054;51.572;7.372;2022-09-09T09:58:57;11.32;;;1.70;;
31424;SDS011;18054;51.572;7.372;2022-09-09T10:01:33;11.90;;;2.13;;
31424;SDS011;18054;51.572;7.372;2022-09-09T10:04:14;11.13;;;2.20;;
31424;SDS011;18054;51.572;7.372;2022-09-09T10:06:42;16.38;;;1.77;;
31424;SDS011;18054;51.572;7.372;2022-09-09T10:09:20;11.80;;;2.60;;
31424;SDS011;18054;51.572;7.372;2022-09-09T10:11:51;7.40;;;1.50;;
31424;SDS011;18054;51.572;7.372;2022-09-09T10:14:23;5.50;;;1.15;;
31424;SDS011;18054;51.572;7.372;2022-09-09T10:16:57;12.35;;;2.53;;
31424;SDS011;18054;51.572;7.372;2022-09-09T10:19:29;7.80;;;1.65;;
31424;SDS011;18054;51.572;7.372;2022-09-09T10:22:05;9.60;;;1.33;;
31424;SDS011;18054;51.572;7.372;2022-09-09T10:24:44;9.63;;;2.07;;
31424;SDS011;18054;51.572;7.372;2022-09-09T10:27:19;12.20;;;2.10;;
31424;SDS011;18054;51.572;7.372;2022-09-09T10:29:53;7.22;;;1.45;;
31424;SDS011;18054;51.572;7.372;2022-09-09T10:32:32;5.50;;;0.90;;
31424;SDS011;18054;51.572;7.372;2022-09-09T10:35:02;5.32;;;1.25;;
31424;SDS011;18054;51.572;7.372;2022-09-09T10:37:38;9.35;;;1.70;;
31424;SDS011;18054;51.572;7.372;2022-09-09T10:42:37;5.13;;;1.30;;
31424;SDS011;18054;51.572;7.372;2022-09-09T10:45:08;8.23;;;1.42;;
31424;SDS011;18054;51.572;7.372;2022-09-09T10:47:44;10.27;;;1.55;;
31424;SDS011;18054;51.572;7.372;2022-09-09T10:50:25;7.53;;;1.45;;
31424;SDS011;18054;51.572;7.372;2022-09-09T10:53:18;13.32;;;1.88;;
31424;SDS011;18054;51.572;7.372;2022-09-09T10:55:49;11.00;;;1.67;;
31424;SDS011;18054;51.572;7.372;2022-09-09T10:58:20;11.30;;;1.55;;
31424;SDS011;18054;51.572;7.372;2022-09-09T11:00:51;28.17;;;1.40;;
31424;SDS011;18054;51.572;7.372;2022-09-09T11:03:24;6.07;;;1.15;;
31424;SDS011;18054;51.572;7.372;2022-09-09T11:05:53;10.68;;;1.20;;
31424;SDS011;18054;51.572;7.372;2022-09-09T11:08:24;10.30;;;1.65;;
31424;SDS011;18054;51.572;7.372;2022-09-09T11:10:53;5.10;;;1.10;;
31424;SDS011;18054;51.572;7.372;2022-09-09T11:13:32;8.82;;;1.15;;
31424;SDS011;18054;51.572;7.372;2022-09-09T11:16:04;6.47;;;1.73;;
31424;SDS011;18054;51.572;7.372;2022-09-09T11:18:32;5.50;;;1.15;;
31424;SDS011;18054;51.572;7.372;2022-09-09T11:21:03;5.45;;;1.02;;
31424;SDS011;18054;51.572;7.372;2022-09-09T11:23:38;6.57;;;1.38;;
31424;SDS011;18054;51.572;7.372;2022-09-09T11:26:08;9.00;;;1.13;;
31424;SDS011;18054;51.572;7.372;2022-09-09T11:28:43;3.90;;;0.80;;
31424;SDS011;18054;51.572;7.372;2022-09-09T11:31:21;3.75;;;1.23;;
31424;SDS011;18054;51.572;7.372;2022-09-09T11:34:06;6.15;;;1.13;;
31424;SDS011;18054;51.572;7.372;2022-09-09T11:36:43;6.72;;;1.45;;
31424;SDS011;18054;51.572;7.372;2022-09-09T11:39:23;5.70;;;1.40;;
31424;SDS011;18054;51.572;7.372;2022-09-09T11:41:52;5.45;;;1.60;;
31424;SDS011;18054;51.572;7.372;2022-09-09T11:44:23;4.85;;;1.23;;
31424;SDS011;18054;51.572;7.372;2022-09-09T11:46:53;4.72;;;1.23;;
31424;SDS011;18054;51.572;7.372;2022-09-09T11:49:26;4.05;;;1.13;;
31424;SDS011;18054;51.572;7.372;2022-09-09T11:51:54;10.00;;;1.55;;
31424;SDS011;18054;51.572;7.372;2022-09-09T11:56:49;5.25;;;1.05;;
31424;SDS011;18054;51.572;7.372;2022-09-09T11:59:19;6.78;;;1.63;;
31424;SDS011;18054;51.572;7.372;2022-09-09T12:01:50;7.85;;;1.17;;
31424;SDS011;18054;51.572;7.372;2022-09-09T12:07:22;7.53;;;1.05;;
31424;SDS011;18054;51.572;7.372;2022-09-09T12:09:52;7.25;;;1.17;;
31424;SDS011;18054;51.572;7.372;2022-09-09T12:15:26;6.68;;;1.60;;
31424;SDS011;18054;51.572;7.372;2022-09-09T12:17:56;5.00;;;1.13;;
31424;SDS011;18054;51.572;7.372;2022-09-09T12:20:31;5.18;;;1.27;;
31424;SDS011;18054;51.572;7.372;2022-09-09T12:23:07;7.03;;;1.20;;
31424;SDS011;18054;51.572;7.372;2022-09-09T12:25:46;8.68;;;1.25;;
31424;SDS011;18054;51.572;7.372;2022-09-09T12:28:15;6.05;;;1.33;;
31424;SDS011;18054;51.572;7.372;2022-09-09T12:30:46;7.72;;;1.13;;
31424;SDS011;18054;51.572;7.372;2022-09-09T12:33:18;4.32;;;1.10;;
31424;SDS011;18054;51.572;7.372;2022-09-09T12:35:47;5.95;;;1.27;;
31424;SDS011;18054;51.572;7.372;2022-09-09T12:38:19;8.38;;;0.90;;
31424;SDS011;18054;51.572;7.372;2022-09-09T12:40:53;4.60;;;0.98;;
31424;SDS011;18054;51.572;7.372;2022-09-09T12:43:22;4.25;;;1.20;;
31424;SDS011;18054;51.572;7.372;2022-09-09T12:45:49;7.22;;;0.90;;
31424;SDS011;18054;51.572;7.372;2022-09-09T12:48:27;3.90;;;0.77;;
31424;SDS011;18054;51.572;7.372;2022-09-09T12:50:55;3.38;;;1.05;;
31424;SDS011;18054;51.572;7.372;2022-09-09T12:53:24;4.32;;;1.30;;
31424;SDS011;18054;51.572;7.372;2022-09-09T12:55:54;3.97;;;1.00;;
31424;SDS011;18054;51.572;7.372;2022-09-09T12:58:23;7.10;;;1.30;;
31424;SDS011;18054;51.572;7.372;2022-09-09T13:00:51;10.10;;;1.20;;
31424;SDS011;18054;51.572;7.372;2022-09-09T13:03:19;10.70;;;1.45;;
31424;SDS011;18054;51.572;7.372;2022-09-09T13:05:49;4.30;;;0.90;;
31424;SDS011;18054;51.572;7.372;2022-09-09T13:08:17;4.35;;;1.00;;
31424;SDS011;18054;51.572;7.372;2022-09-09T13:10:47;7.85;;;1.17;;
31424;SDS011;18054;51.572;7.372;2022-09-09T13:13:27;4.22;;;1.02;;
31424;SDS011;18054;51.572;7.372;2022-09-09T13:15:56;6.40;;;0.88;;
31424;SDS011;18054;51.572;7.372;2022-09-09T13:18:25;6.43;;;1.13;;
31424;SDS011;18054;51.572;7.372;2022-09-09T13:20:55;5.90;;;1.50;;
31424;SDS011;18054;51.572;7.372;2022-09-09T13:23:25;9.02;;;1.30;;
31424;SDS011;18054;51.572;7.372;2022-09-09T13:25:54;5.20;;;1.35;;
31424;SDS011;18054;51.572;7.372;2022-09-09T13:28:23;4.95;;;1.02;;
31424;SDS011;18054;51.572;7.372;2022-09-09T13:30:57;3.28;;;0.75;;
31424;SDS011;18054;51.572;7.372;2022-09-09T13:38:25;3.55;;;0.82;;
31424;SDS011;18054;51.572;7.372;2022-09-09T13:40:56;3.53;;;1.05;;
31424;SDS011;18054;51.572;7.372;2022-09-09T13:43:25;5.93;;;1.15;;
31424;SDS011;18054;51.572;7.372;2022-09-09T13:45:54;5.80;;;1.10;;
31424;SDS011;18054;51.572;7.372;2022-09-09T13:48:24;6.03;;;1.33;;
31424;SDS011;18054;51.572;7.372;2022-09-09T13:50:58;5.95;;;1.38;;
31424;SDS011;18054;51.572;7.372;2022-09-09T13:53:27;3.75;;;1.00;;
31424;SDS011;18054;51.572;7.372;2022-09-09T13:55:56;7.82;;;1.73;;
31424;SDS011;18054;51.572;7.372;2022-09-09T13:58:24;7.50;;;1.13;;
31424;SDS011;18054;51.572;7.372;2022-09-09T14:00:52;10.43;;;1.45;;
31424;SDS011;18054;51.572;7.372;2022-09-09T14:03:20;6.63;;;1.45;;
31424;SDS011;18054;51.572;7.372;2022-09-09T14:05:48;3.45;;;0.93;;
31424;SDS011;18054;51.572;7.372;2022-09-09T14:08:20;5.82;;;1.48;;
31424;SDS011;18054;51.572;7.372;2022-09-09T14:10:49;4.85;;;1.02;;
31424;SDS011;18054;51.572;7.372;2022-09-09T14:13:16;6.50;;;1.35;;
31424;SDS011;18054;51.572;7.372;2022-09-09T14:15:44;6.50;;;1.17;;
31424;SDS011;18054;51.572;7.372;2022-09-09T14:18:12;6.80;;;1.40;;
31424;SDS011;18054;51.572;7.372;2022-09-09T14:20:40;6.15;;;1.17;;
31424;SDS011;18054;51.572;7.372;2022-09-09T14:23:09;7.28;;;1.67;;
31424;SDS011;18054;51.572;7.372;2022-09-09T14:25:39;5.53;;;1.23;;
31424;SDS011;18054;51.572;7.372;2022-09-09T14:28:08;6.55;;;1.30;;
31424;SDS011;18054;51.572;7.372;2022-09-09T14:30:37;6.28;;;1.35;;
31424;SDS011;18054;51.572;7.372;2022-09-09T14:33:04;4.82;;;1.27;;
31424;SDS011;18054;51.572;7.372;2022-09-09T14:35:32;7.60;;;1.67;;
31424;SDS011;18054;51.572;7.372;2022-09-09T14:38:00;5.07;;;1.52;;
31424;SDS011;18054;51.572;7.372;2022-09-09T14:40:28;7.85;;;1.45;;
31424;SDS011;18054;51.572;7.372;2022-09-09T14:42:56;8.45;;;2.00;;
31424;SDS011;18054;51.572;7.372;2022-09-09T14:45:25;5.45;;;1.30;;
31424;SDS011;18054;51.572;7.372;2022-09-09T14:47:53;9.10;;;1.60;;
31424;SDS011;18054;51.572;7.372;2022-09-09T14:50:21;9.45;;;1.75;;
31424;SDS011;18054;51.572;7.372;2022-09-09T14:52:49;5.10;;;1.35;;
31424;SDS011;18054;51.572;7.372;2022-09-09T14:55:16;4.10;;;1.23;;
31424;SDS011;18054;51.572;7.372;2022-09-09T14:57:44;3.25;;;0.88;;
31424;SDS011;18054;51.572;7.372;2022-09-09T15:00:11;8.75;;;1.92;;
31424;SDS011;18054;51.572;7.372;2022-09-09T15:02:41;4.95;;;1.20;;
31424;SDS011;18054;51.572;7.372;2022-09-09T15:05:09;4.40;;;1.02;;
31424;SDS011;18054;51.572;7.372;2022-09-09T15:07:37;5.88;;;1.50;;
31424;SDS011;18054;51.572;7.372;2022-09-09T15:12:32;5.40;;;0.90;;
31424;SDS011;18054;51.572;7.372;2022-09-09T15:15:02;7.10;;;1.38;;
31424;SDS011;18054;51.572;7.372;2022-09-09T15:17:29;3.65;;;1.10;;
31424;SDS011;18054;51.572;7.372;2022-09-09T15:19:58;5.05;;;1.25;;
31424;SDS011;18054;51.572;7.372;2022-09-09T15:22:25;7.82;;;1.35;;
31424;SDS011;18054;51.572;7.372;2022-09-09T15:24:53;2.88;;;0.80;;
31424;SDS011;18054;51.572;7.372;2022-09-09T15:27:20;4.38;;;1.35;;
31424;SDS011;18054;51.572;7.372;2022-09-09T15:29:50;7.50;;;1.95;;
31424;SDS011;18054;51.572;7.372;2022-09-09T15:32:17;9.32;;;1.60;;
31424;SDS011;18054;51.572;7.372;2022-09-09T15:39:41;8.57;;;1.92;;
31424;SDS011;18054;51.572;7.372;2022-09-09T15:42:09;5.20;;;1.23;;
31424;SDS011;18054;51.572;7.372;2022-09-09T15:44:40;5.53;;;1.10;;